Time;durP1;ratioP1;P1;durP2;ratioP2;P2;SDS_P1;SDS_P2;PMS_P1;PMS_P2;Temp;Humidity;BMP_temperature;BMP_pressure;BME280_temperature;BME280_humidity;BME280_pressure;Samples;Min_cycle;Max_cycle;Signal;HPM_P1;HPM_P2
2023/09/10 00:00:21;;;;;;;0.25;0.25;;;23.80;50.80;;;;;;6310066;22;20175;-89
2023/09/10 00:02:50;;;;;;;0.50;0.50;;;23.80;50.90;;;;;;6337361;22;20673;-88
2023/09/10 00:05:18;;;;;;;1.75;0.73;;;23.70;50.90;;;;;;6338086;22;20170;-88
2023/09/10 00:07:47;;;;;;;0.20;0.20;;;23.70;51.00;;;;;;6338249;22;20175;-88
2023/09/10 00:10:17;;;;;;;0.20;0.20;;;23.70;51.10;;;;;;6336133;22;20198;-90
2023/09/10 00:12:46;;;;;;;0.30;0.30;;;23.70;51.10;;;;;;6338792;22;20164;-90
2023/09/10 00:15:14;;;;;;;0.38;0.30;;;23.70;51.20;;;;;;6336674;22;20195;-90
2023/09/10 00:17:45;;;;;;;0.35;0.35;;;23.70;51.40;;;;;;6337929;22;20171;-90
2023/09/10 00:20:13;;;;;;;2.35;0.88;;;23.70;51.60;;;;;;6311655;22;20542;-89
2023/09/10 00:22:43;;;;;;;2.72;0.40;;;23.60;51.70;;;;;;6337122;22;20248;-90
2023/09/10 00:25:12;;;;;;;0.32;0.30;;;23.60;51.70;;;;;;6336163;22;20171;-88
2023/09/10 00:27:40;;;;;;;1.83;0.40;;;23.60;51.70;;;;;;6339157;22;20557;-91
2023/09/10 00:30:10;;;;;;;0.20;0.20;;;23.60;52.00;;;;;;6337888;22;20192;-88
2023/09/10 00:32:39;;;;;;;0.20;0.20;;;23.60;51.90;;;;;;6338150;22;20156;-92
2023/09/10 00:35:10;;;;;;;0.50;0.50;;;23.60;52.00;;;;;;6337115;22;20279;-89
2023/09/10 00:37:39;;;;;;;0.20;0.20;;;23.60;51.90;;;;;;6339523;22;20241;-90
2023/09/10 00:40:10;;;;;;;0.35;0.35;;;23.60;51.90;;;;;;6337321;22;20160;-91
2023/09/10 00:42:38;;;;;;;0.80;0.50;;;23.50;51.80;;;;;;6337043;22;20168;-91
2023/09/10 00:45:09;;;;;;;0.32;0.32;;;23.60;51.90;;;;;;6337221;22;20170;-87
2023/09/10 00:47:42;;;;;;;0.20;0.20;;;23.50;51.80;;;;;;6338226;22;20231;-89
2023/09/10 00:50:13;;;;;;;0.20;0.20;;;23.50;51.80;;;;;;6337767;22;20625;-89
2023/09/10 00:52:44;;;;;;;0.60;0.30;;;23.50;51.80;;;;;;6337931;22;20170;-88
2023/09/10 00:55:14;;;;;;;0.45;0.30;;;23.50;51.90;;;;;;6336201;22;20184;-89
2023/09/10 00:57:43;;;;;;;0.20;0.20;;;23.50;51.90;;;;;;6338064;22;20606;-89
2023/09/10 01:00:14;;;;;;;0.40;0.40;;;23.50;51.90;;;;;;6337135;22;20236;-90
2023/09/10 01:02:44;;;;;;;0.82;0.73;;;23.50;52.10;;;;;;6337680;22;20165;-90
2023/09/10 01:05:16;;;;;;;0.20;0.20;;;23.50;52.30;;;;;;6333831;22;20175;-88
2023/09/10 01:07:46;;;;;;;0.82;0.63;;;23.50;52.50;;;;;;6337988;22;20161;-90
2023/09/10 01:10:15;;;;;;;0.93;0.68;;;23.50;52.80;;;;;;6336850;22;20171;-88
2023/09/10 01:12:55;;;;;;;0.20;0.20;;;23.50;53.00;;;;;;6338911;22;20164;-91
2023/09/10 01:15:31;;;;;;;0.63;0.63;;;23.40;53.20;;;;;;6337734;22;20188;-89
2023/09/10 01:18:05;;;;;;;0.32;0.32;;;23.40;53.40;;;;;;6337277;22;20491;-89
2023/09/10 01:21:02;;;;;;;0.75;0.50;;;23.30;53.50;;;;;;6337003;22;20164;-91
2023/09/10 01:23:44;;;;;;;1.75;1.35;;;23.40;53.50;;;;;;6338361;22;20167;-90
2023/09/10 01:26:14;;;;;;;0.47;0.47;;;23.40;53.60;;;;;;6338160;22;20191;-92
2023/09/10 01:28:42;;;;;;;0.22;0.20;;;23.30;53.50;;;;;;6337695;22;20256;-91
2023/09/10 01:31:11;;;;;;;1.02;0.80;;;23.30;53.90;;;;;;6336577;22;20218;-90
2023/09/10 01:33:45;;;;;;;0.38;0.30;;;23.30;53.80;;;;;;6338863;22;20171;-89
2023/09/10 01:36:22;;;;;;;0.40;0.40;;;23.30;53.70;;;;;;6336087;22;20195;-90
2023/09/10 01:38:56;;;;;;;0.32;0.32;;;23.30;53.70;;;;;;6338831;22;20287;-89
2023/09/10 01:41:27;;;;;;;0.60;0.60;;;23.30;53.70;;;;;;6338550;22;20156;-90
2023/09/10 01:43:57;;;;;;;0.95;0.52;;;23.30;53.70;;;;;;6340241;22;20164;-89
2023/09/10 01:46:27;;;;;;;0.45;0.30;;;23.20;53.80;;;;;;6337916;22;20210;-89
2023/09/10 01:48:56;;;;;;;0.30;0.30;;;23.20;54.30;;;;;;6339546;22;20168;-87
2023/09/10 01:51:25;;;;;;;4.63;0.73;;;23.20;53.60;;;;;;6338709;22;20171;-88
2023/09/10 01:53:55;;;;;;;0.90;0.82;;;23.20;53.60;;;;;;6338884;22;20169;-87
2023/09/10 01:56:23;;;;;;;0.47;0.47;;;23.20;53.60;;;;;;6310015;22;20200;-88
2023/09/10 01:58:53;;;;;;;0.85;0.63;;;23.20;53.60;;;;;;6338324;22;20605;-88
2023/09/10 02:01:22;;;;;;;1.55;1.02;;;23.20;53.80;;;;;;6338455;22;20609;-88
2023/09/10 02:03:53;;;;;;;0.43;0.43;;;23.20;53.80;;;;;;6339572;22;20173;-88
2023/09/10 02:06:21;;;;;;;1.75;0.40;;;23.10;54.10;;;;;;6338181;22;20165;-90
2023/09/10 02:08:50;;;;;;;0.35;0.32;;;23.10;54.00;;;;;;6312772;22;20251;-89
2023/09/10 02:11:19;;;;;;;2.50;0.85;;;23.10;54.20;;;;;;6337402;22;20164;-90
2023/09/10 02:13:47;;;;;;;1.35;0.70;;;23.10;54.20;;;;;;6338793;22;20224;-88
2023/09/10 02:16:17;;;;;;;0.73;0.73;;;23.10;54.10;;;;;;6337329;22;20222;-88
2023/09/10 02:18:46;;;;;;;1.30;0.82;;;23.00;54.30;;;;;;6338358;22;20172;-89
2023/09/10 02:21:14;;;;;;;0.30;0.30;;;23.00;54.40;;;;;;6337160;22;20207;-91
2023/09/10 02:23:43;;;;;;;0.75;0.50;;;23.00;54.60;;;;;;6340151;22;20167;-89
2023/09/10 02:26:12;;;;;;;0.43;0.43;;;23.00;54.50;;;;;;6310582;22;20168;-89
2023/09/10 02:28:40;;;;;;;0.20;0.20;;;22.90;54.60;;;;;;6339534;22;20165;-89
2023/09/10 02:31:10;;;;;;;0.70;0.70;;;22.90;54.90;;;;;;6338558;22;20161;-89
2023/09/10 02:33:40;;;;;;;0.50;0.50;;;22.80;55.10;;;;;;6338753;22;20169;-89
2023/09/10 02:36:08;;;;;;;0.30;0.30;;;22.80;55.20;;;;;;6338752;22;20184;-87
2023/09/10 02:38:37;;;;;;;0.30;0.30;;;22.80;55.30;;;;;;6340419;22;20235;-89
2023/09/10 02:41:06;;;;;;;0.90;0.65;;;22.80;55.40;;;;;;6337672;22;20214;-91
2023/09/10 02:43:35;;;;;;;0.70;0.70;;;22.70;55.60;;;;;;6337444;22;20167;-86
2023/09/10 02:46:04;;;;;;;0.63;0.57;;;22.70;55.90;;;;;;6339510;22;20165;-89
2023/09/10 02:48:34;;;;;;;0.60;0.60;;;22.70;55.70;;;;;;6338577;22;20257;-90
2023/09/10 02:51:04;;;;;;;0.20;0.20;;;22.60;56.20;;;;;;6311706;22;20172;-89
2023/09/10 02:53:36;;;;;;;1.50;0.95;;;22.60;56.10;;;;;;6339162;22;20629;-90
2023/09/10 02:56:04;;;;;;;0.52;0.52;;;22.60;56.60;;;;;;6337869;22;20286;-90
2023/09/10 02:58:33;;;;;;;0.38;0.38;;;22.60;56.30;;;;;;6338605;22;20239;-89
2023/09/10 03:01:05;;;;;;;0.40;0.40;;;22.60;56.30;;;;;;6336930;22;20495;-88
2023/09/10 03:03:34;;;;;;;0.47;0.40;;;22.50;56.80;;;;;;6338783;22;20243;-89
2023/09/10 03:06:12;;;;;;;0.52;0.50;;;22.50;56.80;;;;;;6337421;22;20164;-89
2023/09/10 03:08:42;;;;;;;3.50;0.95;;;22.50;57.30;;;;;;6339682;22;20153;-90
2023/09/10 03:11:11;;;;;;;0.77;0.77;;;22.50;57.90;;;;;;6337971;22;20229;-90
2023/09/10 03:13:40;;;;;;;0.55;0.55;;;22.40;57.60;;;;;;6312026;22;20167;-90
2023/09/10 03:16:09;;;;;;;1.27;0.70;;;22.40;57.80;;;;;;6337830;22;20200;-89
2023/09/10 03:18:37;;;;;;;1.55;0.35;;;22.30;57.80;;;;;;6338873;22;20168;-88
2023/09/10 03:21:07;;;;;;;0.50;0.35;;;22.30;58.00;;;;;;6337320;22;20618;-89
2023/09/10 03:23:36;;;;;;;0.63;0.50;;;22.30;57.90;;;;;;6336558;22;20222;-90
2023/09/10 03:26:05;;;;;;;1.08;0.55;;;22.20;58.00;;;;;;6338252;22;20169;-88
2023/09/10 03:28:33;;;;;;;1.52;0.60;;;22.20;58.20;;;;;;6338421;22;20164;-89
2023/09/10 03:31:02;;;;;;;0.85;0.85;;;22.30;58.40;;;;;;6335678;22;20160;-88
2023/09/10 03:33:30;;;;;;;0.20;0.20;;;22.20;58.20;;;;;;6338814;22;20176;-89
2023/09/10 03:35:59;;;;;;;1.77;0.63;;;22.20;58.20;;;;;;6336840;22;20645;-89
2023/09/10 03:38:30;;;;;;;0.50;0.50;;;22.20;58.60;;;;;;6297049;22;20189;-91
2023/09/10 03:40:58;;;;;;;0.20;0.20;;;22.10;58.70;;;;;;6275727;22;20161;-89
2023/09/10 03:43:27;;;;;;;0.40;0.40;;;22.10;58.60;;;;;;6249621;22;20165;-88
2023/09/10 03:45:56;;;;;;;0.55;0.52;;;22.10;59.10;;;;;;6274975;22;20166;-87
2023/09/10 03:48:25;;;;;;;0.55;0.55;;;22.10;59.10;;;;;;6275388;22;20162;-87
2023/09/10 03:50:53;;;;;;;0.47;0.45;;;22.10;59.20;;;;;;6274764;22;20221;-88
2023/09/10 03:53:22;;;;;;;0.30;0.30;;;22.00;59.00;;;;;;6275647;22;20174;-90
2023/09/10 03:55:52;;;;;;;0.30;0.30;;;22.10;59.20;;;;;;6247778;22;20182;-89
2023/09/10 03:58:20;;;;;;;0.45;0.45;;;22.00;59.40;;;;;;6249508;22;20212;-91
2023/09/10 04:00:49;;;;;;;5.38;0.75;;;22.10;59.30;;;;;;6275045;22;20570;-88
2023/09/10 04:03:18;;;;;;;1.75;1.35;;;22.00;59.80;;;;;;6275182;22;20177;-89
2023/09/10 04:05:46;;;;;;;0.30;0.30;;;22.00;59.30;;;;;;6274879;22;20169;-88
2023/09/10 04:08:15;;;;;;;1.05;0.85;;;22.00;59.70;;;;;;6274646;22;20166;-88
2023/09/10 04:10:44;;;;;;;1.38;0.57;;;22.00;59.90;;;;;;6275516;22;20169;-89
2023/09/10 04:13:16;;;;;;;0.28;0.28;;;22.00;59.70;;;;;;6276866;22;20197;-90
2023/09/10 04:15:45;;;;;;;0.20;0.20;;;22.00;59.80;;;;;;6274846;22;20158;-89
2023/09/10 04:18:13;;;;;;;0.70;0.57;;;22.00;60.20;;;;;;6274690;22;20166;-88
2023/09/10 04:20:42;;;;;;;0.40;0.40;;;22.00;60.00;;;;;;6274780;22;20162;-88
2023/09/10 04:23:10;;;;;;;0.32;0.32;;;22.00;60.10;;;;;;6275214;22;20256;-87
2023/09/10 04:25:39;;;;;;;2.95;0.45;;;22.00;60.30;;;;;;6274900;22;20288;-89
2023/09/10 04:28:08;;;;;;;0.90;0.68;;;22.00;60.10;;;;;;6275461;22;20497;-89
2023/09/10 04:30:39;;;;;;;1.55;0.70;;;22.00;60.30;;;;;;6247437;22;20166;-88
2023/09/10 04:33:08;;;;;;;0.30;0.30;;;22.00;59.90;;;;;;6273652;22;20160;-91
2023/09/10 04:35:37;;;;;;;0.60;0.60;;;22.00;60.10;;;;;;6277160;22;20204;-88
2023/09/10 04:38:06;;;;;;;0.22;0.22;;;21.90;60.20;;;;;;6306091;22;20200;-87
2023/09/10 04:40:34;;;;;;;1.13;0.60;;;21.90;60.10;;;;;;6305699;22;20171;-86
2023/09/10 04:43:04;;;;;;;0.50;0.40;;;21.80;59.90;;;;;;6305136;22;20185;-88
2023/09/10 04:45:36;;;;;;;0.22;0.22;;;21.80;59.80;;;;;;6281189;22;20168;-88
2023/09/10 04:48:06;;;;;;;0.40;0.40;;;21.90;59.70;;;;;;6278693;22;20517;-88
2023/09/10 04:50:35;;;;;;;0.63;0.40;;;21.90;59.80;;;;;;6304954;22;20172;-88
2023/09/10 04:53:04;;;;;;;0.30;0.30;;;21.90;59.80;;;;;;6305888;22;20161;-91
2023/09/10 04:55:33;;;;;;;0.20;0.20;;;21.80;59.80;;;;;;6306221;22;20165;-90
2023/09/10 04:58:02;;;;;;;0.87;0.70;;;21.90;59.70;;;;;;6305099;22;20267;-88
2023/09/10 05:00:31;;;;;;;0.30;0.30;;;21.90;59.70;;;;;;6277318;22;20193;-88
2023/09/10 05:02:59;;;;;;;2.47;1.08;;;21.90;59.60;;;;;;6303555;22;20184;-92
2023/09/10 05:05:30;;;;;;;1.38;0.60;;;21.90;59.70;;;;;;6305600;22;20173;-90
2023/09/10 05:07:58;;;;;;;1.05;0.85;;;21.90;59.90;;;;;;6307471;22;20169;-91
2023/09/10 05:10:30;;;;;;;0.52;0.52;;;21.90;59.70;;;;;;6305808;22;20161;-93
2023/09/10 05:12:58;;;;;;;0.65;0.52;;;22.00;59.70;;;;;;6307445;22;20215;-89
2023/09/10 05:15:27;;;;;;;1.55;0.55;;;21.90;59.80;;;;;;6308673;22;20251;-89
2023/09/10 05:17:58;;;;;;;0.30;0.30;;;22.00;59.70;;;;;;6323979;22;20280;-86
2023/09/10 05:20:27;;;;;;;0.68;0.68;;;22.00;59.70;;;;;;6326184;22;20169;-88
2023/09/10 05:22:57;;;;;;;0.47;0.47;;;22.00;59.70;;;;;;6322188;22;20176;-89
2023/09/10 05:25:57;;;;;;;0.40;0.40;;;22.10;59.70;;;;;;6325235;22;20165;-92
2023/09/10 05:28:29;;;;;;;0.60;0.60;;;22.10;59.80;;;;;;6332295;22;20153;-94
2023/09/10 05:31:07;;;;;;;0.32;0.30;;;22.10;59.70;;;;;;6332811;22;20149;-94
2023/09/10 05:33:39;;;;;;;0.20;0.20;;;22.10;59.70;;;;;;6326373;22;20652;-86
2023/09/10 05:36:08;;;;;;;0.30;0.30;;;22.20;59.90;;;;;;6309451;22;20193;-84
2023/09/10 05:38:38;;;;;;;0.40;0.40;;;22.20;59.90;;;;;;6310654;22;20169;-88
2023/09/10 05:41:07;;;;;;;0.47;0.47;;;22.20;59.60;;;;;;6305796;22;20165;-87
2023/09/10 05:43:36;;;;;;;0.40;0.40;;;22.30;59.80;;;;;;6305064;22;20605;-87
2023/09/10 05:46:05;;;;;;;0.40;0.40;;;22.40;59.80;;;;;;6277583;22;20534;-89
2023/09/10 05:48:35;;;;;;;0.73;0.45;;;22.50;59.80;;;;;;6304013;22;20169;-88
2023/09/10 05:51:03;;;;;;;0.73;0.73;;;22.50;59.50;;;;;;6303987;22;20246;-87
2023/09/10 05:53:32;;;;;;;0.30;0.30;;;22.50;59.40;;;;;;6305679;22;20165;-87
2023/09/10 05:56:05;;;;;;;0.65;0.50;;;22.70;59.50;;;;;;6304315;22;20244;-89
2023/09/10 05:58:34;;;;;;;0.57;0.57;;;22.70;59.40;;;;;;6277594;22;20660;-88
2023/09/10 06:01:05;;;;;;;0.30;0.30;;;22.70;59.40;;;;;;6304385;22;20180;-85
2023/09/10 06:03:34;;;;;;;0.93;0.85;;;22.80;59.20;;;;;;6304592;22;20157;-85
2023/09/10 06:06:04;;;;;;;0.30;0.30;;;22.80;59.20;;;;;;6302989;22;20256;-92
2023/09/10 06:08:32;;;;;;;0.47;0.47;;;22.80;59.00;;;;;;6302485;22;20199;-87
2023/09/10 06:11:01;;;;;;;0.30;0.30;;;22.80;59.00;;;;;;6303046;22;20227;-87
2023/09/10 06:13:32;;;;;;;0.93;0.70;;;22.90;59.00;;;;;;6306224;22;20166;-88
2023/09/10 06:16:01;;;;;;;4.82;0.70;;;22.90;59.10;;;;;;6303049;22;20161;-86
2023/09/10 06:18:30;;;;;;;0.30;0.30;;;23.00;59.00;;;;;;6304132;22;20638;-87
2023/09/10 06:20:58;;;;;;;0.20;0.20;;;23.10;59.00;;;;;;6302186;22;20256;-89
2023/09/10 06:23:27;;;;;;;0.45;0.45;;;23.10;59.00;;;;;;6302717;22;20169;-86
2023/09/10 06:25:56;;;;;;;0.60;0.60;;;23.20;58.90;;;;;;6300379;22;20232;-86
2023/09/10 06:28:28;;;;;;;0.63;0.63;;;23.20;58.70;;;;;;6305818;22;20244;-88
2023/09/10 06:31:00;;;;;;;0.30;0.30;;;23.30;58.90;;;;;;6306665;22;20433;-89
2023/09/10 06:33:29;;;;;;;0.77;0.50;;;23.30;58.90;;;;;;6307233;22;20587;-88
2023/09/10 06:35:58;;;;;;;0.32;0.32;;;23.30;58.80;;;;;;6323392;22;20192;-90
2023/09/10 06:38:29;;;;;;;0.30;0.30;;;23.40;58.80;;;;;;6337436;22;20220;-85
2023/09/10 06:40:57;;;;;;;0.30;0.30;;;23.50;58.70;;;;;;6334296;22;20184;-88
2023/09/10 06:43:26;;;;;;;0.85;0.60;;;23.60;58.80;;;;;;6337317;22;20161;-88
2023/09/10 06:45:54;;;;;;;0.20;0.20;;;23.60;58.90;;;;;;6337002;22;20160;-87
2023/09/10 06:48:24;;;;;;;0.32;0.30;;;23.70;58.80;;;;;;6336973;22;20222;-86
2023/09/10 06:50:53;;;;;;;0.20;0.20;;;23.70;58.60;;;;;;6334710;22;20180;-87
2023/09/10 06:53:22;;;;;;;0.22;0.22;;;23.90;58.70;;;;;;6332279;22;20632;-86
2023/09/10 06:55:50;;;;;;;0.90;0.82;;;23.90;58.80;;;;;;6335721;22;20640;-88
2023/09/10 06:58:19;;;;;;;2.25;1.33;;;24.00;58.90;;;;;;6339140;22;20251;-89
2023/09/10 07:00:48;;;;;;;0.25;0.25;;;24.00;59.20;;;;;;6337921;22;20548;-87
2023/09/10 07:03:19;;;;;;;0.32;0.32;;;24.10;58.90;;;;;;6338108;22;20601;-88
2023/09/10 07:05:49;;;;;;;0.93;0.93;;;24.10;58.90;;;;;;6337668;22;20184;-86
2023/09/10 07:08:18;;;;;;;1.02;0.70;;;24.20;58.90;;;;;;6338996;22;20160;-87
2023/09/10 07:10:47;;;;;;;0.30;0.30;;;24.30;59.00;;;;;;6309296;22;20218;-88
2023/09/10 07:13:17;;;;;;;8.02;1.02;;;24.30;59.00;;;;;;6311791;22;20167;-88
2023/09/10 07:15:46;;;;;;;0.80;0.68;;;24.40;59.00;;;;;;6311016;22;20181;-88
2023/09/10 07:18:15;;;;;;;0.88;0.43;;;24.40;58.90;;;;;;6338281;22;20536;-88
2023/09/10 07:20:43;;;;;;;0.30;0.30;;;24.50;58.90;;;;;;6338469;22;20164;-89
2023/09/10 07:23:13;;;;;;;2.25;0.70;;;24.60;58.90;;;;;;6338242;22;20160;-86
2023/09/10 07:25:42;;;;;;;0.20;0.20;;;24.60;58.80;;;;;;6337769;22;20164;-87
2023/09/10 07:28:10;;;;;;;0.20;0.20;;;24.70;58.80;;;;;;6337629;22;20180;-86
2023/09/10 07:30:42;;;;;;;0.85;0.85;;;24.70;58.90;;;;;;6335734;22;20176;-85
2023/09/10 07:33:13;;;;;;;5.38;1.45;;;24.80;59.00;;;;;;6337885;22;20149;-89
2023/09/10 07:35:42;;;;;;;0.73;0.73;;;24.90;58.90;;;;;;6336707;22;20210;-86
2023/09/10 07:38:10;;;;;;;0.30;0.30;;;24.90;59.10;;;;;;6337890;22;20188;-87
2023/09/10 07:40:40;;;;;;;2.10;1.42;;;25.00;58.80;;;;;;6337053;22;20167;-88
2023/09/10 07:43:09;;;;;;;0.50;0.50;;;25.00;58.60;;;;;;6337676;22;20187;-89
2023/09/10 07:45:37;;;;;;;0.60;0.60;;;25.00;58.60;;;;;;6337949;22;20164;-89
2023/09/10 07:48:06;;;;;;;0.30;0.30;;;25.10;58.70;;;;;;6337612;22;20168;-87
2023/09/10 07:50:35;;;;;;;0.30;0.30;;;25.20;58.60;;;;;;6337477;22;20161;-87
2023/09/10 07:53:04;;;;;;;0.20;0.20;;;25.20;58.50;;;;;;6336780;22;20169;-89
2023/09/10 07:55:36;;;;;;;4.18;0.40;;;25.30;58.30;;;;;;6338294;22;20164;-91
2023/09/10 07:58:06;;;;;;;0.52;0.50;;;25.40;58.50;;;;;;6338858;22;20525;-88
2023/09/10 08:00:36;;;;;;;0.30;0.30;;;25.40;58.30;;;;;;6337907;22;20157;-87
2023/09/10 08:03:06;;;;;;;8.23;0.93;;;25.50;58.30;;;;;;6337178;22;20210;-88
2023/09/10 08:05:35;;;;;;;0.20;0.20;;;25.60;58.20;;;;;;6337266;22;20160;-90
2023/09/10 08:08:07;;;;;;;0.20;0.20;;;25.70;58.10;;;;;;6337997;22;20255;-90
2023/09/10 08:10:36;;;;;;;0.68;0.68;;;25.70;57.90;;;;;;6337570;22;20155;-86
2023/09/10 08:13:06;;;;;;;0.30;0.30;;;25.80;57.90;;;;;;6338458;22;20218;-87
2023/09/10 08:15:35;;;;;;;5.82;2.08;;;25.80;57.70;;;;;;6337070;22;20486;-86
2023/09/10 08:18:08;;;;;;;0.95;0.50;;;25.90;57.70;;;;;;6337896;22;20191;-88
2023/09/10 08:20:37;;;;;;;1.50;0.35;;;25.90;57.60;;;;;;6337684;22;20231;-87
2023/09/10 08:23:06;;;;;;;0.98;0.88;;;26.00;57.60;;;;;;6338343;22;20164;-87
2023/09/10 08:25:35;;;;;;;0.30;0.30;;;26.00;57.30;;;;;;6337378;22;20551;-86
2023/09/10 08:28:05;;;;;;;0.52;0.43;;;26.10;57.10;;;;;;6337930;22;20527;-88
2023/09/10 08:30:35;;;;;;;0.88;0.88;;;26.10;57.10;;;;;;6336355;22;20164;-86
2023/09/10 08:33:04;;;;;;;0.35;0.35;;;26.20;57.00;;;;;;6338601;22;20597;-90
2023/09/10 08:35:44;;;;;;;0.55;0.55;;;26.20;56.90;;;;;;6338052;22;20188;-88
2023/09/10 08:38:13;;;;;;;0.47;0.30;;;26.30;56.80;;;;;;6337482;22;20215;-89
2023/09/10 08:40:48;;;;;;;0.30;0.30;;;26.40;56.70;;;;;;6337184;22;20165;-89
2023/09/10 08:43:23;;;;;;;4.85;1.60;;;26.40;56.60;;;;;;6338468;22;20160;-90
2023/09/10 08:45:52;;;;;;;0.57;0.57;;;26.40;56.40;;;;;;6336737;22;20194;-89
2023/09/10 08:48:21;;;;;;;0.40;0.40;;;26.50;56.50;;;;;;6338448;22;20172;-88
2023/09/10 08:50:51;;;;;;;0.55;0.50;;;26.60;56.50;;;;;;6336620;22;20194;-86
2023/09/10 08:53:21;;;;;;;0.40;0.40;;;26.60;56.40;;;;;;6338328;22;20183;-88
2023/09/10 08:55:50;;;;;;;1.67;0.80;;;26.70;56.50;;;;;;6336954;22;20223;-88
2023/09/10 08:58:21;;;;;;;1.10;1.00;;;26.80;56.50;;;;;;6338271;22;20425;-88
2023/09/10 09:00:51;;;;;;;0.45;0.45;;;26.80;57.00;;;;;;6336068;22;20221;-87
2023/09/10 09:03:24;;;;;;;0.20;0.20;;;26.80;56.10;;;;;;6338064;22;20213;-88
2023/09/10 09:05:55;;;;;;;0.40;0.40;;;26.80;56.00;;;;;;6337352;22;20282;-88
2023/09/10 09:08:30;;;;;;;0.40;0.40;;;26.90;55.80;;;;;;6338287;22;20160;-92
2023/09/10 09:11:04;;;;;;;0.40;0.40;;;26.90;55.30;;;;;;6336928;22;20724;-89
2023/09/10 09:13:36;;;;;;;0.40;0.40;;;26.90;55.40;;;;;;6338504;22;20247;-88
2023/09/10 09:16:06;;;;;;;0.52;0.52;;;27.00;55.40;;;;;;6336984;22;20236;-88
2023/09/10 09:18:37;;;;;;;0.20;0.20;;;27.00;55.40;;;;;;6338348;22;20207;-91
2023/09/10 09:21:12;;;;;;;0.30;0.30;;;27.10;55.40;;;;;;6337174;22;20172;-88
2023/09/10 09:23:46;;;;;;;0.30;0.30;;;27.10;55.30;;;;;;6337886;22;20213;-87
2023/09/10 09:26:15;;;;;;;0.70;0.35;;;27.20;55.20;;;;;;6337794;22;20164;-87
2023/09/10 09:28:45;;;;;;;0.30;0.30;;;27.30;55.20;;;;;;6338774;22;20472;-89
2023/09/10 09:31:14;;;;;;;1.25;0.32;;;27.30;55.10;;;;;;6337035;22;20186;-88
2023/09/10 09:33:44;;;;;;;0.40;0.40;;;27.30;54.90;;;;;;6337563;22;20182;-87
2023/09/10 09:36:13;;;;;;;1.40;1.05;;;27.40;54.60;;;;;;6335781;22;20192;-88
2023/09/10 09:38:43;;;;;;;1.67;0.65;;;27.40;53.40;;;;;;6338007;22;20192;-88
2023/09/10 09:41:15;;;;;;;0.73;0.70;;;27.50;53.40;;;;;;6336700;22;20178;-88
2023/09/10 09:43:45;;;;;;;0.30;0.30;;;27.50;53.50;;;;;;6337991;22;20163;-89
2023/09/10 09:46:14;;;;;;;0.30;0.30;;;27.60;53.70;;;;;;6335057;22;20160;-87
2023/09/10 09:48:43;;;;;;;0.65;0.40;;;27.70;53.80;;;;;;6334444;22;20168;-87
2023/09/10 09:51:14;;;;;;;0.40;0.40;;;27.70;53.80;;;;;;6336259;22;20478;-88
2023/09/10 09:53:45;;;;;;;0.40;0.40;;;27.70;53.90;;;;;;6337398;22;20161;-89
2023/09/10 09:56:21;;;;;;;0.20;0.20;;;27.80;53.80;;;;;;6336997;22;20226;-88
2023/09/10 09:58:51;;;;;;;2.85;0.65;;;27.70;53.00;;;;;;6338370;22;20247;-87
2023/09/10 10:01:22;;;;;;;0.43;0.43;;;27.70;53.00;;;;;;6336265;22;20175;-88
2023/09/10 10:03:52;;;;;;;0.65;0.60;;;27.80;53.20;;;;;;6338818;22;20172;-87
2023/09/10 10:06:21;;;;;;;0.50;0.30;;;27.80;52.90;;;;;;6338459;22;20164;-88
2023/09/10 10:08:51;;;;;;;0.52;0.30;;;27.80;53.10;;;;;;6338550;22;20160;-88
2023/09/10 10:11:29;;;;;;;2.55;0.82;;;27.90;53.10;;;;;;6338828;22;20164;-88
2023/09/10 10:14:01;;;;;;;0.82;0.63;;;27.90;52.90;;;;;;6339741;22;20164;-89
2023/09/10 10:16:30;;;;;;;4.40;1.20;;;28.00;53.10;;;;;;6339209;22;20233;-88
2023/09/10 10:18:59;;;;;;;0.93;0.85;;;28.00;53.10;;;;;;6338705;22;20198;-89
2023/09/10 10:21:29;;;;;;;4.30;0.95;;;28.10;52.90;;;;;;6339118;22;20165;-89
2023/09/10 10:23:58;;;;;;;1.08;0.98;;;28.10;52.20;;;;;;6338037;22;20160;-86
2023/09/10 10:26:28;;;;;;;0.75;0.75;;;28.20;51.90;;;;;;6337844;22;20169;-89
2023/09/10 10:28:58;;;;;;;0.50;0.47;;;28.20;52.00;;;;;;6338475;22;20225;-87
2023/09/10 10:31:33;;;;;;;0.30;0.30;;;28.30;52.00;;;;;;6338415;22;20175;-90
2023/09/10 10:34:04;;;;;;;0.20;0.20;;;28.30;52.00;;;;;;6339173;22;20239;-88
2023/09/10 10:36:46;;;;;;;0.50;0.50;;;28.40;51.90;;;;;;6337844;22;20668;-88
2023/09/10 10:39:17;;;;;;;0.80;0.50;;;28.40;52.30;;;;;;6338697;22;20172;-88
2023/09/10 10:41:51;;;;;;;0.60;0.60;;;28.40;51.60;;;;;;6339212;22;20161;-89
2023/09/10 10:44:22;;;;;;;1.20;0.95;;;28.40;51.80;;;;;;6337557;22;20574;-89
2023/09/10 10:47:00;;;;;;;0.88;0.63;;;28.40;51.60;;;;;;6339181;22;20157;-89
2023/09/10 10:49:30;;;;;;;1.15;0.98;;;28.40;51.50;;;;;;6338041;22;20173;-87
2023/09/10 10:52:06;;;;;;;0.82;0.65;;;28.40;51.40;;;;;;6338024;22;20171;-86
2023/09/10 10:54:36;;;;;;;0.35;0.35;;;28.40;51.40;;;;;;6338423;22;20582;-88
2023/09/10 10:57:06;;;;;;;0.38;0.38;;;28.40;51.20;;;;;;6337122;22;20167;-88
2023/09/10 10:59:40;;;;;;;0.40;0.40;;;28.40;51.00;;;;;;6337896;22;20267;-89
2023/09/10 11:02:21;;;;;;;1.63;0.93;;;28.40;50.90;;;;;;6337816;22;20160;-89
2023/09/10 11:04:58;;;;;;;0.50;0.50;;;28.40;51.00;;;;;;6338313;22;20195;-89
2023/09/10 11:07:29;;;;;;;0.30;0.30;;;28.50;51.20;;;;;;6338333;22;20497;-88
2023/09/10 11:09:58;;;;;;;0.38;0.35;;;28.40;51.00;;;;;;6339080;22;20659;-88
2023/09/10 11:12:29;;;;;;;1.95;0.57;;;28.50;51.00;;;;;;6336606;22;20194;-88
2023/09/10 11:15:12;;;;;;;1.38;1.00;;;28.50;50.90;;;;;;6336910;22;20551;-90
2023/09/10 11:17:42;;;;;;;0.30;0.30;;;28.60;50.50;;;;;;6337751;22;20438;-88
2023/09/10 11:20:12;;;;;;;0.30;0.30;;;28.60;50.50;;;;;;6331317;22;20548;-87
2023/09/10 11:23:06;;;;;;;0.82;0.82;;;28.60;50.30;;;;;;6335614;22;20202;-88
2023/09/10 11:25:35;;;;;;;0.20;0.20;;;28.70;50.50;;;;;;6337023;22;20178;-87
2023/09/10 11:28:04;;;;;;;1.05;0.93;;;28.80;50.30;;;;;;6334016;22;20489;-86
2023/09/10 11:30:32;;;;;;;1.23;0.70;;;28.80;50.20;;;;;;6336063;22;20251;-89
2023/09/10 11:33:35;;;;;;;0.90;0.60;;;28.90;50.00;;;;;;6335359;22;20178;-90
2023/09/10 11:36:05;;;;;;;0.43;0.43;;;29.00;50.00;;;;;;6208754;23;20373;-87
2023/09/10 11:38:34;;;;;;;0.47;0.47;;;29.10;50.00;;;;;;6210123;23;20210;-91
2023/09/10 11:41:04;;;;;;;2.05;0.90;;;29.20;50.00;;;;;;6270086;22;20188;-88
2023/09/10 11:43:33;;;;;;;1.55;1.05;;;29.30;49.70;;;;;;6333662;22;20169;-86
2023/09/10 11:46:01;;;;;;;0.20;0.20;;;29.30;49.70;;;;;;6334344;22;20629;-85
2023/09/10 11:48:30;;;;;;;0.68;0.68;;;29.30;49.40;;;;;;6333827;22;20165;-88
2023/09/10 11:51:00;;;;;;;0.43;0.43;;;29.40;48.60;;;;;;6335361;22;20192;-87
2023/09/10 11:53:29;;;;;;;0.45;0.40;;;29.40;48.90;;;;;;6335609;22;20157;-87
2023/09/10 11:55:59;;;;;;;0.55;0.55;;;29.40;48.30;;;;;;6334465;22;20240;-86
2023/09/10 11:58:28;;;;;;;0.43;0.40;;;29.50;48.50;;;;;;6336205;22;20638;-86
2023/09/10 12:00:57;;;;;;;0.30;0.30;;;29.50;48.60;;;;;;6334281;22;20200;-87
2023/09/10 12:03:27;;;;;;;0.30;0.30;;;29.60;48.60;;;;;;6337158;22;20527;-86
2023/09/10 12:05:56;;;;;;;0.70;0.63;;;29.70;48.50;;;;;;6335751;22;20165;-87
2023/09/10 12:08:26;;;;;;;0.20;0.20;;;29.80;48.10;;;;;;6338197;22;20172;-88
2023/09/10 12:11:03;;;;;;;0.80;0.80;;;29.80;48.20;;;;;;6336526;22;20156;-89
2023/09/10 12:13:35;;;;;;;0.35;0.35;;;29.80;48.10;;;;;;6337005;22;20588;-86
2023/09/10 12:16:06;;;;;;;1.45;0.88;;;29.90;48.00;;;;;;6308266;22;20614;-87
2023/09/10 12:18:35;;;;;;;7.40;1.83;;;29.90;47.80;;;;;;6337636;22;20158;-86
2023/09/10 12:21:05;;;;;;;0.47;0.45;;;29.90;47.30;;;;;;6336757;22;20200;-86
2023/09/10 12:23:35;;;;;;;0.60;0.60;;;29.90;47.50;;;;;;6336995;22;20630;-85
2023/09/10 12:26:04;;;;;;;0.57;0.57;;;29.80;47.40;;;;;;6335049;22;20211;-87
2023/09/10 12:28:34;;;;;;;5.20;0.50;;;29.80;47.00;;;;;;6338680;22;20243;-87
2023/09/10 12:31:06;;;;;;;0.20;0.20;;;29.80;46.90;;;;;;6335840;22;20164;-87
2023/09/10 12:33:36;;;;;;;0.82;0.60;;;29.90;47.10;;;;;;6337165;22;20170;-86
2023/09/10 12:36:06;;;;;;;0.65;0.60;;;29.90;46.90;;;;;;6335472;22;20193;-86
2023/09/10 12:38:36;;;;;;;1.10;1.02;;;29.90;47.00;;;;;;6338020;22;20171;-88
2023/09/10 12:41:05;;;;;;;0.73;0.40;;;29.90;47.10;;;;;;6335367;22;20180;-86
2023/09/10 12:43:35;;;;;;;0.75;0.50;;;29.90;47.10;;;;;;6336088;22;20172;-88
2023/09/10 12:46:04;;;;;;;0.20;0.20;;;29.80;47.00;;;;;;6336267;22;20164;-87
2023/09/10 12:48:32;;;;;;;0.60;0.60;;;29.70;46.90;;;;;;6337561;22;20164;-87
2023/09/10 12:51:01;;;;;;;0.80;0.80;;;29.70;46.90;;;;;;6308225;22;20251;-87
2023/09/10 12:53:30;;;;;;;0.40;0.40;;;29.60;47.60;;;;;;6336762;22;20618;-86
2023/09/10 12:56:01;;;;;;;0.28;0.20;;;29.60;46.90;;;;;;6335833;22;20243;-88
2023/09/10 12:58:31;;;;;;;0.55;0.55;;;29.60;46.80;;;;;;6336938;22;20161;-86
2023/09/10 13:01:00;;;;;;;0.63;0.57;;;29.60;46.80;;;;;;6334339;22;20642;-88
2023/09/10 13:03:29;;;;;;;0.30;0.30;;;29.60;46.50;;;;;;6336525;22;20168;-87